Time;durP1;ratioP1;P1;durP2;ratioP2;P2;SDS_P1;SDS_P2;PMS_P1;PMS_P2;Temp;Humidity;BMP_temperature;BMP_pressure;BME280_temperature;BME280_humidity;BME280_pressure;Samples;Min_cycle;Max_cycle;Signal;HPM_P1;HPM_P2
2022/11/11 00:00:22;;;;;;;;;23.00;19.67;;;;;10.73;88.94;100651.25;5020334;28;46244;-82
2022/11/11 00:02:48;;;;;;;;;27.00;20.33;;;;;10.72;88.84;100643.41;5030284;28;45404;-82
2022/11/11 00:05:15;;;;;;;;;22.67;18.33;;;;;10.70;88.95;100647.81;5031922;28;45353;-82
2022/11/11 00:07:40;;;;;;;;;22.00;20.33;;;;;10.68;88.87;100642.56;5030776;28;45556;-82
2022/11/11 00:10:06;;;;;;;;;20.00;20.00;;;;;10.68;88.84;100639.94;5026694;28;45458;-82
2022/11/11 00:12:31;;;;;;;;;18.67;17.67;;;;;10.67;88.67;100646.09;5055538;28;45400;-82
2022/11/11 00:14:56;;;;;;;;;16.67;16.67;;;;;10.67;88.61;100637.31;5038711;28;45687;-82
2022/11/11 00:25:36;;;;;;;;;22.33;21.00;;;;;10.60;88.27;100633.00;5019771;28;45397;-82
2022/11/11 00:28:02;;;;;;;;;20.00;19.33;;;;;10.59;88.28;100634.78;5021017;28;45349;-82
2022/11/11 00:30:27;;;;;;;;;23.33;19.33;;;;;10.57;88.07;100636.56;5019810;28;46504;-82
2022/11/11 00:32:52;;;;;;;;;15.33;14.00;;;;;10.55;88.20;100638.38;5037299;28;45385;-82
2022/11/11 00:38:44;;;;;;;;;20.67;18.33;;;;;10.51;88.49;100639.31;5036346;28;45343;-82
2022/11/11 00:40:59;;;;;;;;;19.00;16.67;;;;;10.48;88.55;100640.25;5021875;28;45911;-82
2022/11/11 00:43:24;;;;;;;;;16.33;14.67;;;;;10.47;89.03;100648.16;5023566;28;45551;-82
2022/11/11 00:45:50;;;;;;;;;18.67;16.33;;;;;10.43;89.16;100647.34;5037139;28;45396;-83
2022/11/11 00:50:59;;;;;;;;;19.00;16.67;;;;;10.40;89.33;100641.22;5026276;28;45804;-82
2022/11/11 00:53:27;;;;;;;;;21.00;19.00;;;;;10.40;89.63;100649.13;5023432;28;45821;-82
2022/11/11 00:55:54;;;;;;;;;17.67;15.67;;;;;10.38;89.65;100651.81;5027921;28;45436;-82
2022/11/11 00:58:19;;;;;;;;;21.33;19.67;;;;;10.37;89.66;100659.75;5022000;28;45426;-82
2022/11/11 01:00:44;;;;;;;;;21.00;19.00;;;;;10.36;89.95;100663.28;5037118;28;46237;-82
2022/11/11 01:03:10;;;;;;;;;23.33;19.33;;;;;10.35;90.36;100665.03;5034557;28;45294;-82
2022/11/11 01:05:38;;;;;;;;;18.00;17.00;;;;;10.33;90.23;100661.56;5027733;28;45513;-82
2022/11/11 01:08:04;;;;;;;;;16.00;16.00;;;;;10.33;89.98;100668.59;5019483;28;45576;-82
2022/11/11 01:10:43;;;;;;;;;20.00;18.67;;;;;10.32;90.36;100666.84;5034621;28;46362;-82
2022/11/11 01:13:18;;;;;;;;;22.67;19.00;;;;;10.31;90.41;100670.38;5025178;28;45524;-82
2022/11/11 01:15:46;;;;;;;;;24.67;24.33;;;;;10.29;90.57;100672.16;5036195;28;45425;-82
2022/11/11 01:18:14;;;;;;;;;24.33;19.33;;;;;10.27;90.56;100671.31;5020735;28;45377;-82
2022/11/11 01:20:40;;;;;;;;;22.67;22.00;;;;;10.25;90.72;100673.97;5028587;28;45663;-82
2022/11/11 01:23:07;;;;;;;;;23.33;21.33;;;;;10.23;90.79;100683.66;5036561;28;45250;-82
2022/11/11 01:25:37;;;;;;;;;19.67;18.33;;;;;10.19;90.74;100683.72;5022988;28;45338;-82
2022/11/11 01:28:03;;;;;;;;;24.00;20.67;;;;;10.18;91.17;100676.69;5023872;28;45484;-82
2022/11/11 01:30:31;;;;;;;;;26.33;21.00;;;;;10.18;90.83;100684.59;5036884;28;45421;-82
2022/11/11 01:32:56;;;;;;;;;17.00;17.00;;;;;10.14;90.74;100681.13;5027824;28;45376;-82
2022/11/11 01:35:21;;;;;;;;;22.00;21.33;;;;;10.11;91.00;100681.16;5030235;28;45156;-82
2022/11/11 01:37:47;;;;;;;;;22.33;21.33;;;;;10.08;91.00;100682.06;5046826;28;45613;-82
2022/11/11 01:40:12;;;;;;;;;19.67;18.00;;;;;10.07;90.84;100682.06;5032055;28;45820;-82
2022/11/11 01:42:52;;;;;;;;;24.00;20.33;;;;;10.04;91.06;100676.88;5023984;28;45442;-82
2022/11/11 01:45:42;;;;;;;;;22.00;21.33;;;;;10.02;91.15;100671.63;5023175;28;45429;-82
2022/11/11 01:51:08;;;;;;;;;23.00;23.00;;;;;9.99;91.51;100676.06;5016373;28;45412;-82
2022/11/11 01:53:33;;;;;;;;;27.33;24.00;;;;;9.98;91.45;100680.44;5030026;28;45317;-82
2022/11/11 01:56:01;;;;;;;;;29.67;26.00;;;;;9.99;91.27;100678.69;5042904;28;45350;-82
2022/11/11 01:58:27;;;;;;;;;25.33;24.33;;;;;9.99;91.53;100681.31;5032355;28;45500;-82
2022/11/11 02:00:53;;;;;;;;;24.33;23.00;;;;;9.97;91.45;100688.38;5027230;28;46413;-82
2022/11/11 02:03:22;;;;;;;;;21.67;20.00;;;;;9.96;91.57;100682.22;5022694;28;45344;-82
2022/11/11 02:05:47;;;;;;;;;23.67;22.33;;;;;9.95;91.55;100679.59;5036924;28;45320;-82
2022/11/11 02:08:12;;;;;;;;;21.33;16.33;;;;;9.95;91.53;100683.13;5022707;28;45338;-82
2022/11/11 02:10:43;;;;;;;;;22.33;20.00;;;;;9.95;91.74;100679.59;5025566;28;45326;-82
2022/11/11 02:15:57;;;;;;;;;25.67;24.33;;;;;9.93;91.65;100682.25;5029324;28;45363;-82
2022/11/11 02:18:23;;;;;;;;;18.50;18.50;;;;;9.93;91.80;100678.75;5023671;28;45444;-82
2022/11/11 02:20:49;;;;;;;;;22.67;21.00;;;;;9.92;91.94;100687.53;5020479;28;46727;-83
2022/11/11 02:23:26;;;;;;;;;17.00;14.00;;;;;9.90;92.06;100690.19;5023614;28;45211;-82
2022/11/11 02:25:53;;;;;;;;;22.67;20.00;;;;;9.90;92.08;100692.81;5022360;28;45482;-82
2022/11/11 02:28:21;;;;;;;;;21.67;20.33;;;;;9.91;92.16;100691.94;5026550;28;45497;-83
2022/11/11 02:30:46;;;;;;;;;20.00;18.33;;;;;9.90;92.24;100692.81;5030540;28;46760;-82
2022/11/11 02:33:12;;;;;;;;;22.67;16.33;;;;;9.90;92.00;100691.94;5026266;28;45397;-82
2022/11/11 02:35:41;;;;;;;;;19.67;18.33;;;;;9.90;92.01;100684.06;5029004;28;45423;-82
2022/11/11 02:38:10;;;;;;;;;19.33;19.33;;;;;9.86;92.12;100688.50;5025319;28;45523;-82
2022/11/11 02:43:27;;;;;;;;;30.33;22.33;;;;;9.85;92.38;100694.66;5016121;28;45299;-82
2022/11/11 02:45:52;;;;;;;;;21.33;20.67;;;;;9.85;92.22;100704.34;5029308;28;45370;-82
2022/11/11 02:48:18;;;;;;;;;25.33;22.67;;;;;9.85;92.55;100705.19;5028593;28;45204;-82
2022/11/11 02:50:43;;;;;;;;;15.33;12.00;;;;;9.84;92.11;100702.59;5035236;28;45465;-82
2022/11/11 02:53:08;;;;;;;;;20.67;19.67;;;;;9.81;92.18;100706.13;5035249;28;45409;-82
2022/11/11 02:55:34;;;;;;;;;23.67;22.67;;;;;9.80;92.15;100699.09;5021857;28;45282;-83
2022/11/11 02:58:00;;;;;;;;;19.33;17.33;;;;;9.78;92.30;100701.75;5022648;28;45398;-83
2022/11/11 03:00:25;;;;;;;;;22.33;21.33;;;;;9.77;92.36;100701.78;5028583;28;45575;-82
2022/11/11 03:02:51;;;;;;;;;20.00;19.00;;;;;9.77;92.16;100704.41;5026743;28;45430;-82
2022/11/11 03:05:16;;;;;;;;;25.00;22.00;;;;;9.75;92.07;100706.19;5021510;28;45325;-82
2022/11/11 03:07:41;;;;;;;;;23.00;20.67;;;;;9.72;92.45;100712.34;5020806;28;45442;-82
2022/11/11 03:10:07;;;;;;;;;26.67;23.33;;;;;9.70;92.21;100711.53;5028065;28;45382;-82
2022/11/11 03:12:32;;;;;;;;;23.00;22.33;;;;;9.69;92.37;100717.69;5015032;28;45400;-82
2022/11/11 03:14:58;;;;;;;;;23.33;20.00;;;;;9.67;92.33;100718.56;5027803;28;45800;-82
2022/11/11 03:17:39;;;;;;;;;24.67;22.33;;;;;9.65;92.54;100713.31;5027669;28;45393;-82
2022/11/11 03:23:14;;;;;;;;;29.00;25.67;;;;;9.61;92.86;100722.13;5030336;28;45369;-83
2022/11/11 03:25:47;;;;;;;;;26.67;20.00;;;;;9.61;92.77;100737.06;5028029;28;45221;-82
2022/11/11 03:28:17;;;;;;;;;21.67;20.00;;;;;9.60;92.80;100735.31;5023384;28;45410;-82
2022/11/11 03:30:48;;;;;;;;;16.67;16.00;;;;;9.59;92.67;100734.44;5021325;28;46425;-82
2022/11/11 03:33:15;;;;;;;;;20.33;15.67;;;;;9.58;92.86;100734.44;5024645;28;45400;-82
2022/11/11 03:35:41;;;;;;;;;20.67;19.67;;;;;9.57;92.97;100736.22;5015169;28;45430;-82
2022/11/11 03:38:15;;;;;;;;;21.00;16.67;;;;;9.57;93.02;100746.75;5014530;28;45379;-82
2022/11/11 03:40:45;;;;;;;;;20.00;19.67;;;;;9.55;92.61;100756.41;5027400;28;46598;-82
2022/11/11 03:43:12;;;;;;;;;23.00;20.00;;;;;9.54;92.79;100754.69;5026198;28;45492;-83
2022/11/11 03:45:37;;;;;;;;;23.67;20.00;;;;;9.54;92.71;100751.19;5020076;28;45374;-82
2022/11/11 03:48:04;;;;;;;;;28.00;23.33;;;;;9.51;92.79;100762.63;5022456;28;45388;-82
2022/11/11 03:50:30;;;;;;;;;23.00;21.67;;;;;9.49;92.59;100759.13;5033187;28;45556;-82
2022/11/11 03:52:55;;;;;;;;;22.33;18.33;;;;;9.50;92.76;100762.63;5034179;28;45396;-82
2022/11/11 03:55:20;;;;;;;;;14.67;14.67;;;;;9.48;92.90;100765.28;5027686;28;45498;-82
2022/11/11 03:57:46;;;;;;;;;18.33;18.33;;;;;9.48;92.46;100783.72;5026680;28;45268;-82
2022/11/11 04:00:17;;;;;;;;;13.33;12.33;;;;;9.47;92.31;100781.97;5020667;28;46350;-82
2022/11/11 04:11:05;;;;;;;;;15.00;14.67;;;;;9.35;92.57;100780.31;5027458;28;45441;-82
2022/11/11 04:16:15;;;;;;;;;18.67;17.33;;;;;9.32;92.93;100775.06;5019963;28;45478;-82
2022/11/11 04:21:43;;;;;;;;;12.33;11.67;;;;;9.32;93.26;100782.09;5036012;28;45324;-82
2022/11/11 04:27:00;;;;;;;;;20.00;17.00;;;;;9.31;93.06;100786.47;5027857;28;45449;-82
2022/11/11 04:29:29;;;;;;;;;15.00;15.00;;;;;9.30;93.22;100784.75;5032260;28;45313;-82
2022/11/11 04:34:43;;;;;;;;;22.33;18.67;;;;;9.28;93.04;100798.78;5024562;28;45254;-82
2022/11/11 04:37:09;;;;;;;;;18.67;17.33;;;;;9.26;93.13;100796.16;5036186;28;45330;-82
2022/11/11 04:42:18;;;;;;;;;21.00;19.33;;;;;9.22;92.72;100798.81;5033079;28;45493;-81
2022/11/11 04:47:27;;;;;;;;;21.00;20.00;;;;;9.17;92.83;100809.41;5024071;28;45259;-82
2022/11/11 04:49:52;;;;;;;;;21.00;21.00;;;;;9.13;92.77;100809.44;5026511;28;45620;-82
2022/11/11 04:52:27;;;;;;;;;21.00;18.67;;;;;9.11;93.06;100817.34;5034134;28;46029;-82
2022/11/11 04:57:43;;;;;;;;;16.00;15.33;;;;;9.09;93.33;100825.22;5026493;28;45473;-83
2022/11/11 05:00:11;;;;;;;;;20.00;19.67;;;;;9.08;93.48;100823.47;5030549;28;45325;-82
2022/11/11 05:05:24;;;;;;;;;22.67;17.33;;;;;9.06;93.78;100825.25;5024004;28;45395;-83
2022/11/11 05:10:35;;;;;;;;;19.33;17.00;;;;;9.04;93.77;100829.69;5026644;28;45434;-83
2022/11/11 05:21:24;;;;;;;;;19.00;14.00;;;;;9.03;93.98;100848.97;5023944;28;45372;-82
2022/11/11 05:26:34;;;;;;;;;17.33;15.67;;;;;9.02;93.78;100849.84;5028822;28;45329;-82
2022/11/11 05:29:00;;;;;;;;;15.67;15.00;;;;;9.02;93.81;100855.13;5018083;28;45475;-82
2022/11/11 05:31:26;;;;;;;;;15.00;13.33;;;;;9.02;93.76;100852.47;5035405;28;45282;-82
2022/11/11 05:33:51;;;;;;;;;13.00;12.67;;;;;9.04;93.67;100857.75;5023249;28;46445;-82
2022/11/11 05:36:17;;;;;;;;;14.00;14.00;;;;;9.05;93.64;100859.47;5029190;28;45226;-82
2022/11/11 05:38:42;;;;;;;;;12.33;12.33;;;;;9.07;93.73;100868.22;5017988;28;45365;-82
2022/11/11 05:41:08;;;;;;;;;15.67;13.00;;;;;9.07;93.53;100865.59;5028935;28;45256;-82
2022/11/11 05:43:33;;;;;;;;;11.33;11.33;;;;;9.09;93.48;100876.97;5029860;28;45640;-82
2022/11/11 05:45:59;;;;;;;;;14.33;14.00;;;;;9.13;93.75;100869.94;5024464;28;45468;-82
2022/11/11 05:48:24;;;;;;;;;15.00;14.00;;;;;9.16;93.63;100862.91;5021952;28;45402;-82
2022/11/11 05:50:49;;;;;;;;;16.00;14.33;;;;;9.19;93.17;100868.16;5028494;28;45570;-82
2022/11/11 05:53:15;;;;;;;;;14.67;13.33;;;;;9.22;93.21;100870.75;5029293;28;45444;-82
2022/11/11 05:55:40;;;;;;;;;11.67;11.67;;;;;9.27;93.18;100870.72;5024083;28;45457;-82
2022/11/11 05:58:05;;;;;;;;;17.00;15.00;;;;;9.31;93.32;100868.06;5023395;28;45841;-82
2022/11/11 06:00:31;;;;;;;;;14.33;12.67;;;;;9.34;93.18;100869.81;5028616;28;45306;-82
2022/11/11 06:03:04;;;;;;;;;10.33;5.67;;;;;9.36;93.37;100868.94;5029713;28;46355;-82
2022/11/11 06:05:30;;;;;;;;;16.33;10.00;;;;;9.39;93.48;100879.41;5024887;28;45401;-82
2022/11/11 06:07:55;;;;;;;;;14.00;13.00;;;;;9.42;93.45;100878.50;5022949;28;45425;-82
2022/11/11 06:10:29;;;;;;;;;17.00;15.00;;;;;9.44;93.42;100872.34;5036154;28;45397;-83
2022/11/11 06:13:03;;;;;;;;;18.33;16.33;;;;;9.47;93.43;100881.13;5022683;28;46156;-82
2022/11/11 06:15:33;;;;;;;;;17.50;14.50;;;;;9.49;92.96;100889.88;5025121;28;45440;-82
2022/11/11 06:17:59;;;;;;;;;16.00;15.00;;;;;9.50;93.01;100883.75;5019926;28;45328;-82
2022/11/11 06:20:25;;;;;;;;;19.00;15.00;;;;;9.51;92.46;100888.13;5024456;28;45491;-82
2022/11/11 06:22:56;;;;;;;;;15.33;14.33;;;;;9.52;92.92;100895.13;5030175;28;45367;-82
2022/11/11 06:28:06;;;;;;;;;15.33;14.67;;;;;9.53;92.53;100895.13;5023543;28;45447;-83
2022/11/11 06:30:32;;;;;;;;;16.00;15.00;;;;;9.53;92.56;100899.50;5021786;28;45376;-82
2022/11/11 06:32:57;;;;;;;;;15.67;14.67;;;;;9.51;92.10;100896.00;5035314;28;46037;-82
2022/11/11 06:35:22;;;;;;;;;18.67;14.67;;;;;9.50;91.99;100905.66;5034466;28;45405;-82
2022/11/11 06:37:48;;;;;;;;;13.00;12.67;;;;;9.50;92.20;100907.44;5022934;28;45478;-83
2022/11/11 06:40:13;;;;;;;;;16.67;13.33;;;;;9.48;92.17;100906.56;5021138;28;45435;-82
2022/11/11 06:42:39;;;;;;;;;18.00;15.00;;;;;9.47;91.98;100903.06;5028030;28;47603;-83
2022/11/11 06:45:05;;;;;;;;;12.33;11.00;;;;;9.45;92.10;100903.06;5028805;28;45274;-83
2022/11/11 06:47:30;;;;;;;;;17.00;14.67;;;;;9.41;92.22;100898.69;5023270;28;45357;-83
2022/11/11 06:49:55;;;;;;;;;14.00;14.00;;;;;9.41;92.55;100910.97;5022168;28;45355;-82
2022/11/11 06:52:21;;;;;;;;;16.33;16.33;;;;;9.41;92.24;100903.97;5028374;28;45333;-82
2022/11/11 06:54:46;;;;;;;;;13.33;13.33;;;;;9.42;91.49;100918.00;5038914;28;45316;-83
2022/11/11 06:57:12;;;;;;;;;15.00;14.33;;;;;9.39;91.03;100915.38;5028007;28;45459;-83
2022/11/11 06:59:37;;;;;;;;;11.67;11.33;;;;;9.38;91.29;100918.94;5028448;28;45319;-82
2022/11/11 07:02:02;;;;;;;;;14.00;13.67;;;;;9.39;91.58;100916.25;5022584;28;45443;-82
2022/11/11 07:04:27;;;;;;;;;15.00;14.00;;;;;9.42;91.90;100920.63;5020824;28;45442;-69
2022/11/11 07:06:53;;;;;;;;;19.33;15.00;;;;;9.50;91.97;100917.97;5027570;28;45307;-69
2022/11/11 07:09:18;;;;;;;;;19.33;19.33;;;;;9.55;92.04;100922.28;5027780;28;45358;-69
2022/11/11 07:11:44;;;;;;;;;19.00;15.33;;;;;9.61;91.52;100929.28;5030314;28;46166;-69
2022/11/11 07:14:09;;;;;;;;;18.00;15.33;;;;;9.63;91.40;100923.13;5020464;28;45453;-69
2022/11/11 07:16:34;;;;;;;;;21.33;16.67;;;;;9.66;91.48;100919.59;5020918;28;45421;-69
2022/11/11 07:19:00;;;;;;;;;16.33;15.00;;;;;9.69;91.61;100925.72;5046230;28;45630;-69
2022/11/11 07:21:25;;;;;;;;;13.67;11.33;;;;;9.72;91.51;100917.78;5017760;28;48188;-68
2022/11/11 07:23:50;;;;;;;;;19.00;16.00;;;;;9.75;91.39;100914.25;5031941;28;45533;-66
2022/11/11 07:26:16;;;;;;;;;21.00;20.33;;;;;9.78;91.41;100916.84;5028452;28;45480;-67
2022/11/11 07:28:41;;;;;;;;;18.00;15.67;;;;;9.80;91.16;100918.59;5019953;28;45879;-67
2022/11/11 07:31:06;;;;;;;;;22.00;19.33;;;;;9.83;91.33;100928.25;5032573;28;45464;-68
2022/11/11 07:33:32;;;;;;;;;20.00;20.00;;;;;9.86;91.21;100927.34;5022833;28;45375;-68
2022/11/11 07:35:57;;;;;;;;;18.67;17.33;;;;;9.87;90.64;100924.69;5013613;28;45453;-68
2022/11/11 07:38:23;;;;;;;;;19.00;16.33;;;;;9.86;90.45;100925.59;5013742;28;45484;-68
2022/11/11 07:40:48;;;;;;;;;24.33;18.67;;;;;9.86;90.15;100933.50;5013325;28;45977;-68
2022/11/11 07:43:13;;;;;;;;;18.00;16.00;;;;;9.86;89.64;100928.22;5014072;28;45461;-67
2022/11/11 07:45:39;;;;;;;;;16.33;15.33;;;;;9.87;89.59;100942.25;5013677;28;45469;-68
2022/11/11 07:48:05;;;;;;;;;19.00;19.00;;;;;9.86;89.62;100936.13;5013662;28;45521;-67
2022/11/11 07:50:30;;;;;;;;;17.00;15.33;;;;;9.88;89.46;100941.38;5013175;28;45566;-68
2022/11/11 07:52:55;;;;;;;;;20.00;16.67;;;;;9.89;89.45;100938.72;5014470;28;45295;-68
2022/11/11 07:55:22;;;;;;;;;21.67;16.33;;;;;9.92;89.44;100943.09;5045225;28;45766;-68
2022/11/11 07:57:51;;;;;;;;;18.33;18.00;;;;;9.94;89.53;100942.19;5025393;28;45416;-67
2022/11/11 08:00:16;;;;;;;;;17.67;15.67;;;;;9.95;89.41;100927.25;5035629;28;45405;-67
2022/11/11 08:02:46;;;;;;;;;25.33;21.00;;;;;9.98;89.46;100937.78;5032133;28;45447;-68
2022/11/11 08:05:12;;;;;;;;;22.67;18.67;;;;;9.97;89.40;100931.63;5048489;28;45421;-67
2022/11/11 08:07:37;;;;;;;;;18.67;18.67;;;;;9.98;89.77;100925.47;5036335;28;45298;-68
2022/11/11 08:10:03;;;;;;;;;16.33;15.67;;;;;10.01;89.57;100927.22;5035845;28;45864;-65
2022/11/11 08:15:12;;;;;;;;;21.00;17.33;;;;;10.06;89.47;100930.66;5026414;28;45365;-66
2022/11/11 08:17:38;;;;;;;;;17.00;17.00;;;;;10.08;89.59;100927.13;5038147;28;45418;-66
2022/11/11 08:20:05;;;;;;;;;13.33;13.33;;;;;10.11;89.69;100926.22;5021521;28;45440;-65
2022/11/11 08:22:38;;;;;;;;;18.67;17.00;;;;;10.13;89.76;100922.69;5030531;28;45400;-65
2022/11/11 08:25:08;;;;;;;;;20.00;18.33;;;;;10.16;89.68;100927.06;5035794;28;45297;-65
2022/11/11 08:27:35;;;;;;;;;23.33;17.67;;;;;10.18;89.60;100917.38;5041324;28;45877;-64
2022/11/11 08:30:01;;;;;;;;;17.33;16.33;;;;;10.20;89.83;100923.56;5034735;28;48272;-65
2022/11/11 08:32:26;;;;;;;;;22.33;20.67;;;;;10.23;89.87;100926.13;5043379;28;45538;-65
2022/11/11 08:34:52;;;;;;;;;20.33;19.33;;;;;10.28;90.04;100924.34;5036171;28;45378;-65
2022/11/11 08:37:17;;;;;;;;;23.00;20.00;;;;;10.32;89.99;100922.56;5018833;28;45683;-64
2022/11/11 08:39:42;;;;;;;;;15.00;15.00;;;;;10.38;89.49;100919.88;5016169;28;45342;-65
2022/11/11 08:42:08;;;;;;;;;22.67;19.00;;;;;10.43;89.65;100915.38;5016175;28;45596;-65
2022/11/11 08:44:33;;;;;;;;;20.33;18.33;;;;;10.47;89.59;100919.75;5023792;28;45434;-65
2022/11/11 08:46:58;;;;;;;;;19.67;18.00;;;;;10.50;89.30;100911.81;5032184;28;45417;-65
2022/11/11 08:49:24;;;;;;;;;20.33;19.00;;;;;10.54;89.20;100905.63;5036205;28;45598;-66
2022/11/11 08:51:49;;;;;;;;;19.67;15.67;;;;;10.58;89.07;100901.16;5035843;28;45449;-65
2022/11/11 08:54:15;;;;;;;;;20.00;18.67;;;;;10.63;88.70;100904.63;5042174;28;45342;-65
2022/11/11 08:56:40;;;;;;;;;15.67;14.00;;;;;10.66;88.44;100904.59;5039956;28;45561;-65
2022/11/11 08:59:05;;;;;;;;;15.67;15.00;;;;;10.66;88.43;100905.47;5028180;28;45795;-66
2022/11/11 09:01:31;;;;;;;;;17.75;16.00;;;;;10.70;88.61;100901.03;5024134;28;45514;-66
2022/11/11 09:03:56;;;;;;;;;17.33;16.00;;;;;10.74;88.44;100900.09;5024195;28;45926;-66
2022/11/11 09:06:22;;;;;;;;;15.67;14.67;;;;;10.77;88.23;100902.69;5035396;28;45456;-66
2022/11/11 09:08:47;;;;;;;;;15.25;15.00;;;;;10.81;88.22;100905.28;5034151;28;48427;-66
2022/11/11 09:11:13;;;;;;;;;18.00;15.00;;;;;10.85;87.78;100908.75;5032286;28;45361;-66
2022/11/11 09:13:39;;;;;;;;;14.25;13.25;;;;;10.89;87.39;100906.97;5035808;28;45442;-66
2022/11/11 09:16:05;;;;;;;;;10.50;10.50;;;;;10.91;87.14;100899.88;5035395;28;45564;-66
2022/11/11 09:18:31;;;;;;;;;13.75;12.75;;;;;10.93;86.77;100893.69;5027905;28;45403;-66
2022/11/11 09:20:59;;;;;;;;;13.00;13.00;;;;;10.95;87.10;100885.75;5023510;28;45535;-65
2022/11/11 09:23:24;;;;;;;;;15.25;14.00;;;;;10.99;87.09;100885.69;5035474;28;45520;-66
2022/11/11 09:25:49;;;;;;;;;10.50;10.25;;;;;11.04;87.06;100889.16;5021169;28;45417;-66
2022/11/11 09:28:15;;;;;;;;;13.25;11.25;;;;;11.09;87.04;100884.66;5015585;28;46508;-66
2022/11/11 09:30:40;;;;;;;;;14.75;13.25;;;;;11.14;86.88;100877.56;5015359;28;45454;-66
2022/11/11 09:33:06;;;;;;;;;15.00;12.75;;;;;11.22;86.57;100880.09;5015417;28;45394;-66
2022/11/11 09:35:31;;;;;;;;;16.00;14.25;;;;;11.29;86.40;100880.88;5013659;28;45578;-64
2022/11/11 09:37:59;;;;;;;;;14.25;14.00;;;;;11.36;86.40;100880.78;5017187;28;46471;-64
2022/11/11 09:40:27;;;;;;;;;11.00;11.00;;;;;11.42;86.21;100872.72;5029956;28;45454;-64
2022/11/11 09:43:10;;;;;;;;;17.25;14.75;;;;;11.50;86.16;100883.19;5035516;28;45501;-64
2022/11/11 09:46:00;;;;;;;;;15.50;13.25;;;;;11.58;86.12;100885.69;5034667;28;45524;-64
2022/11/11 09:48:42;;;;;;;;;12.75;11.50;;;;;11.68;86.09;100889.94;5034778;28;45448;-64
2022/11/11 09:51:19;;;;;;;;;18.67;16.00;;;;;11.74;85.42;100890.69;5034836;28;45436;-66
2022/11/11 09:53:57;;;;;;;;;19.75;16.00;;;;;11.81;85.15;100894.16;5034486;28;45388;-66
2022/11/11 09:56:25;;;;;;;;;19.75;17.25;;;;;11.87;84.65;100894.94;5041591;28;45376;-64
2022/11/11 09:59:01;;;;;;;;;20.00;16.50;;;;;11.92;84.76;100889.56;5034150;28;45526;-65
2022/11/11 10:01:36;;;;;;;;;13.50;11.00;;;;;11.99;84.67;100893.84;5034433;28;45476;-67
2022/11/11 10:04:27;;;;;;;;;14.50;14.50;;;;;12.06;84.08;100898.16;5026203;28;45418;-67
2022/11/11 10:06:59;;;;;;;;;14.50;13.75;;;;;12.14;83.99;100898.00;5033581;28;45443;-68
2022/11/11 10:09:37;;;;;;;;;14.00;13.50;;;;;12.19;83.84;100897.00;5034253;28;45516;-68
2022/11/11 10:12:15;;;;;;;;;14.50;12.25;;;;;12.27;83.87;100893.34;5017996;28;45551;-68
2022/11/11 10:14:49;;;;;;;;;16.00;15.00;;;;;12.33;83.65;100893.25;5030960;28;45385;-69
2022/11/11 10:17:39;;;;;;;;;15.75;15.25;;;;;12.38;83.08;100889.63;5033669;28;45467;-68
2022/11/11 10:20:21;;;;;;;;;14.00;14.00;;;;;12.46;83.09;100879.75;5033553;28;46184;-67
2022/11/11 10:22:52;;;;;;;;;16.25;14.00;;;;;12.53;82.92;100878.72;5033496;28;45690;-67
2022/11/11 10:25:21;;;;;;;;;14.00;13.75;;;;;12.59;82.59;100875.06;5022278;28;45456;-67
2022/11/11 10:27:51;;;;;;;;;16.00;14.50;;;;;12.66;82.56;100870.53;5031264;28;45556;-68
2022/11/11 10:30:27;;;;;;;;;16.50;15.25;;;;;12.70;82.57;100864.28;5021624;28;45543;-68
2022/11/11 10:32:58;;;;;;;;;13.25;12.00;;;;;12.73;81.90;100862.44;5033948;28;45435;-67
2022/11/11 10:35:26;;;;;;;;;15.75;15.25;;;;;12.78;81.56;100867.63;5034235;28;45313;-67
2022/11/11 10:38:02;;;;;;;;;17.75;16.00;;;;;12.84;81.73;100868.38;5033714;28;45469;-68
2022/11/11 10:40:40;;;;;;;;;18.00;16.00;;;;;12.90;81.35;100864.75;5033130;28;45413;-68
2022/11/11 10:43:18;;;;;;;;;14.00;14.00;;;;;12.94;81.05;100866.38;5033634;28;45389;-68
2022/11/11 10:45:50;;;;;;;;;19.75;16.25;;;;;12.99;81.12;100856.59;5020641;28;45334;-69
2022/11/11 10:48:20;;;;;;;;;16.75;15.25;;;;;13.03;80.86;100855.63;5033819;28;45528;-70
2022/11/11 10:50:59;;;;;;;;;21.33;19.33;;;;;13.08;80.95;100851.06;5031801;28;46449;-67
2022/11/11 10:53:34;;;;;;;;;11.75;11.75;;;;;13.14;80.81;100845.63;5028394;28;45371;-68
2022/11/11 10:56:25;;;;;;;;;13.75;13.75;;;;;13.19;80.39;100842.94;5023338;28;45446;-68
2022/11/11 10:59:05;;;;;;;;;11.75;11.75;;;;;13.25;80.83;100843.63;5033835;28;45544;-68
2022/11/11 11:01:42;;;;;;;;;16.50;16.00;;;;;13.32;80.53;100840.84;5033270;28;45735;-68
2022/11/11 11:04:30;;;;;;;;;15.75;15.00;;;;;13.39;80.60;100839.81;5028042;28;45409;-67
2022/11/11 11:07:00;;;;;;;;;16.75;13.75;;;;;13.44;80.51;100828.19;5014375;28;45425;-67
2022/11/11 11:09:32;;;;;;;;;11.75;11.00;;;;;13.51;79.63;100828.91;5028254;28;45496;-68
2022/11/11 11:12:08;;;;;;;;;13.00;13.00;;;;;13.54;79.58;100819.13;5033265;28;45528;-68
2022/11/11 11:14:40;;;;;;;;;17.25;14.75;;;;;13.59;79.37;100826.91;5033077;28;45522;-67
2022/11/11 11:17:21;;;;;;;;;21.50;20.00;;;;;13.63;79.29;100818.88;5033489;28;45452;-68
2022/11/11 11:20:10;;;;;;;;;10.75;10.75;;;;;13.69;78.57;100809.03;5033452;28;45374;-68
2022/11/11 11:22:46;;;;;;;;;15.75;13.00;;;;;13.74;78.42;100813.28;5033441;28;46507;-68
2022/11/11 11:25:12;;;;;;;;;15.25;14.00;;;;;13.78;78.68;100809.63;5033253;28;45487;-68
2022/11/11 11:27:38;;;;;;;;;16.00;15.75;;;;;13.83;78.27;100804.22;5031593;28;45414;-68
2022/11/11 11:30:29;;;;;;;;;17.25;16.25;;;;;13.87;78.08;100805.91;5022085;28;45455;-68
2022/11/11 11:32:56;;;;;;;;;18.25;16.25;;;;;13.91;77.70;100791.63;5012307;28;47688;-68
2022/11/11 11:35:34;;;;;;;;;16.50;14.75;;;;;13.96;77.63;100795.91;5013653;28;45493;-68
2022/11/11 11:38:00;;;;;;;;;12.50;10.00;;;;;14.01;77.26;100795.78;5029401;28;45443;-68
2022/11/11 11:40:26;;;;;;;;;17.00;15.50;;;;;14.06;77.32;100790.38;5037589;28;45568;-68
2022/11/11 11:42:51;;;;;;;;;17.50;17.50;;;;;14.11;76.99;100788.44;5033539;28;45444;-68
2022/11/11 11:45:19;;;;;;;;;19.25;18.50;;;;;14.16;76.77;100789.19;5031387;28;45657;-68
2022/11/11 11:48:09;;;;;;;;;19.75;17.75;;;;;14.19;76.98;100784.66;5022597;28;45497;-68
2022/11/11 11:50:49;;;;;;;;;13.00;12.50;;;;;14.24;76.62;100774.78;5032646;28;45487;-68
2022/11/11 11:53:28;;;;;;;;;15.00;12.00;;;;;14.29;76.09;100779.94;5031603;28;46237;-68
2022/11/11 11:55:57;;;;;;;;;11.75;11.75;;;;;14.33;76.39;100773.66;5041650;28;45440;-68
2022/11/11 11:58:38;;;;;;;;;11.50;9.75;;;;;14.39;75.93;100770.84;5030015;28;45389;-67
2022/11/11 12:01:07;;;;;;;;;10.00;10.00;;;;;14.44;75.42;100763.63;5025371;28;45482;-68
2022/11/11 12:03:38;;;;;;;;;15.75;10.75;;;;;14.47;75.03;100757.34;5033141;28;45522;-68
2022/11/11 12:06:28;;;;;;;;;13.25;13.25;;;;;14.49;75.09;100751.09;5033261;28;45456;-68
2022/11/11 12:09:06;;;;;;;;;15.25;15.00;;;;;14.53;74.81;100746.56;5038798;28;45402;-68
2022/11/11 12:11:34;;;;;;;;;15.75;14.75;;;;;14.56;75.10;100749.13;5033383;28;45477;-68
2022/11/11 12:14:16;;;;;;;;;13.75;13.50;;;;;14.61;74.93;100739.22;5033016;28;45467;-68
2022/11/11 12:17:21;;;;;;;;;15.00;13.50;;;;;14.66;74.74;100730.22;5031252;28;45394;-68
2022/11/11 12:20:00;;;;;;;;;10.75;10.75;;;;;14.73;74.58;100725.59;5032573;28;45417;-68
2022/11/11 12:23:00;;;;;;;;;12.75;11.00;;;;;14.80;74.30;100732.44;5032816;28;45495;-68
2022/11/11 12:25:47;;;;;;;;;13.50;12.25;;;;;14.83;73.99;100719.06;5032661;28;46053;-68
2022/11/11 12:28:26;;;;;;;;;10.75;9.50;;;;;14.87;73.91;100714.53;5033106;28;45432;-68
2022/11/11 12:31:09;;;;;;;;;11.00;9.00;;;;;14.92;74.13;100716.09;5028604;28;45423;-68
2022/11/11 12:33:47;;;;;;;;;11.75;11.25;;;;;14.98;73.58;100705.28;5025619;28;45456;-68
2022/11/11 12:36:35;;;;;;;;;13.75;12.00;;;;;15.03;72.77;100702.47;5031701;28;46562;-68
2022/11/11 12:39:37;;;;;;;;;11.50;10.25;;;;;15.06;72.00;100688.22;5033233;28;45448;-68